createdAt,value
2023-02-23T00:02:08.515Z,6.54
2023-02-23T00:04:36.917Z,6.54
2023-02-23T00:07:06.517Z,6.52
2023-02-23T00:09:37.059Z,6.52
2023-02-23T00:12:10.403Z,6.51
2023-02-23T00:14:38.775Z,6.52
2023-02-23T00:17:14.662Z,6.53
2023-02-23T00:19:44.079Z,6.53
2023-02-23T00:22:12.946Z,6.54
2023-02-23T00:24:42.512Z,6.53
2023-02-23T00:27:10.555Z,6.53
2023-02-23T00:29:40.823Z,6.52
2023-02-23T00:32:08.590Z,6.50
2023-02-23T00:34:40.730Z,6.51
2023-02-23T00:37:09.342Z,6.51
2023-02-23T00:39:36.700Z,6.51
2023-02-23T00:42:06.772Z,6.52
2023-02-23T00:44:35.238Z,6.52
2023-02-23T00:47:07.409Z,6.52
2023-02-23T00:49:35.916Z,6.53
2023-02-23T00:52:05.234Z,6.53
2023-02-23T00:54:32.784Z,6.54
2023-02-23T00:57:00.076Z,6.55
2023-02-23T00:59:29.658Z,6.53
2023-02-23T01:01:57.765Z,6.54
2023-02-23T01:04:25.243Z,6.55
2023-02-23T01:06:52.575Z,6.56
2023-02-23T01:09:28.789Z,6.55
2023-02-23T01:11:57.373Z,6.55
2023-02-23T01:14:25.185Z,6.56
2023-02-23T01:16:52.594Z,6.56
2023-02-23T01:19:20.590Z,6.58
2023-02-23T01:21:52.035Z,6.57
2023-02-23T01:24:19.306Z,6.60
2023-02-23T01:26:46.663Z,6.63
2023-02-23T01:29:17.714Z,6.66
2023-02-23T01:31:48.005Z,6.68
2023-02-23T01:34:19.759Z,6.68
2023-02-23T01:36:47.367Z,6.68
2023-02-23T01:39:17.637Z,6.69
2023-02-23T01:41:45.489Z,6.69
2023-02-23T01:44:12.855Z,6.69
2023-02-23T01:46:46.050Z,6.69
2023-02-23T01:49:23.456Z,6.69
2023-02-23T01:52:08.097Z,6.66
2023-02-23T01:54:38.729Z,6.65
2023-02-23T01:57:10.816Z,6.65
2023-02-23T01:59:42.598Z,6.65
2023-02-23T02:02:10.552Z,6.65
2023-02-23T02:04:44.710Z,6.64
2023-02-23T02:07:14.882Z,6.65
2023-02-23T02:10:04.451Z,6.64
2023-02-23T02:12:31.764Z,6.64
2023-02-23T02:15:00.756Z,6.63
2023-02-23T02:17:46.724Z,6.64
2023-02-23T02:20:39.416Z,6.62
2023-02-23T02:23:36.577Z,6.60
2023-02-23T02:26:34.348Z,6.61
2023-02-23T02:29:32.504Z,6.62
2023-02-23T02:32:11.312Z,6.62
2023-02-23T02:34:59.028Z,6.62
2023-02-23T02:38:24.883Z,6.64
2023-02-23T02:40:57.207Z,6.62
2023-02-23T02:43:52.294Z,6.61
2023-02-23T02:46:27.444Z,6.59
2023-02-23T02:49:38.944Z,6.61
2023-02-23T02:52:40.286Z,6.60
2023-02-23T02:55:23.970Z,6.60
2023-02-23T02:57:56.621Z,6.59
2023-02-23T03:00:50.062Z,6.57
2023-02-23T03:03:51.415Z,6.55
2023-02-23T03:07:11.769Z,6.54
2023-02-23T03:10:15.400Z,6.55
2023-02-23T03:13:26.957Z,6.55
2023-02-23T03:16:32.674Z,6.55
2023-02-23T03:19:45.393Z,6.53
2023-02-23T03:22:53.258Z,6.54
2023-02-23T03:25:52.137Z,6.55
2023-02-23T03:28:43.724Z,6.55
2023-02-23T03:31:46.682Z,6.56
2023-02-23T03:35:01.143Z,6.57
2023-02-23T03:37:54.925Z,6.57
2023-02-23T03:40:45.130Z,6.57
2023-02-23T03:43:37.517Z,6.56
2023-02-23T03:46:28.465Z,6.57
2023-02-23T03:49:19.533Z,6.57
2023-02-23T03:52:07.886Z,6.56
2023-02-23T03:54:59.739Z,6.55
2023-02-23T03:57:49.335Z,6.54
2023-02-23T04:00:48.849Z,6.54
2023-02-23T04:03:37.362Z,6.54
2023-02-23T04:06:29.126Z,6.54
2023-02-23T04:09:20.003Z,6.55
2023-02-23T04:12:10.238Z,6.53
2023-02-23T04:14:46.224Z,6.52
2023-02-23T04:17:15.824Z,6.53
2023-02-23T04:19:54.096Z,6.54
2023-02-23T04:22:22.699Z,6.53
2023-02-23T04:24:51.149Z,6.54
2023-02-23T04:27:18.718Z,6.54
2023-02-23T04:29:46.542Z,6.54
2023-02-23T04:32:18.247Z,6.55
2023-02-23T04:34:46.482Z,6.55
2023-02-23T04:37:14.343Z,6.53
2023-02-23T04:39:43.047Z,6.52
2023-02-23T04:42:10.839Z,6.50
2023-02-23T04:44:39.561Z,6.50
2023-02-23T04:47:06.841Z,6.50
2023-02-23T04:49:34.578Z,6.52
2023-02-23T04:52:02.022Z,6.53
2023-02-23T04:54:29.693Z,6.54
2023-02-23T04:56:57.143Z,6.55
2023-02-23T04:59:24.687Z,6.56
2023-02-23T05:01:52.048Z,6.56
2023-02-23T05:04:19.383Z,6.56
2023-02-23T05:06:48.003Z,6.57
2023-02-23T05:09:15.324Z,6.56
2023-02-23T05:11:42.804Z,6.56
2023-02-23T05:14:12.967Z,6.57
2023-02-23T05:16:40.414Z,6.57
2023-02-23T05:19:08.105Z,6.56
2023-02-23T05:21:35.383Z,6.56
2023-02-23T05:24:05.313Z,6.57
2023-02-23T05:26:32.685Z,6.57
2023-02-23T05:29:00.441Z,6.58
2023-02-23T05:31:28.898Z,6.59
2023-02-23T05:33:56.296Z,6.58
2023-02-23T05:36:23.877Z,6.58
2023-02-23T05:38:51.315Z,6.57
2023-02-23T05:41:23.303Z,6.57
2023-02-23T05:43:53.948Z,6.55
2023-02-23T05:46:24.825Z,6.56
2023-02-23T05:48:57.723Z,6.55
2023-02-23T05:51:28.518Z,6.55
2023-02-23T05:53:56.042Z,6.55
2023-02-23T05:56:24.975Z,6.57
2023-02-23T05:59:01.356Z,6.57
2023-02-23T06:01:29.482Z,6.55
2023-02-23T06:03:59.676Z,6.55
2023-02-23T06:06:28.957Z,6.52
2023-02-23T06:08:56.639Z,6.53
2023-02-23T06:11:24.155Z,6.52
2023-02-23T06:13:52.477Z,6.52
2023-02-23T06:16:21.236Z,6.52
2023-02-23T06:18:51.498Z,6.55
2023-02-23T06:21:19.104Z,6.55
2023-02-23T06:23:48.083Z,6.56
2023-02-23T06:26:15.411Z,6.56
2023-02-23T06:28:42.906Z,6.56
2023-02-23T06:31:10.652Z,6.56
2023-02-23T06:33:37.977Z,6.57
2023-02-23T06:36:06.419Z,6.56
2023-02-23T06:38:33.731Z,6.57
2023-02-23T06:41:11.694Z,6.57
2023-02-23T06:43:39.634Z,6.58
2023-02-23T06:46:07.790Z,6.57
2023-02-23T06:48:35.947Z,6.56
2023-02-23T06:51:03.553Z,6.56
2023-02-23T06:53:31.532Z,6.54
2023-02-23T06:55:59.057Z,6.54
2023-02-23T06:58:26.656Z,6.55
2023-02-23T07:00:57.054Z,6.55
2023-02-23T07:03:24.609Z,6.56
2023-02-23T07:05:52.705Z,6.57
2023-02-23T07:08:20.074Z,6.57
2023-02-23T07:10:47.588Z,6.59
2023-02-23T07:13:14.890Z,6.59
2023-02-23T07:15:42.724Z,6.59
2023-02-23T07:18:10.130Z,6.58
2023-02-23T07:20:37.774Z,6.58
2023-02-23T07:23:05.260Z,6.59
2023-02-23T07:25:32.678Z,6.59
2023-02-23T07:28:00.316Z,6.57
2023-02-23T07:30:27.668Z,6.57
2023-02-23T07:32:55.004Z,6.57
2023-02-23T07:35:22.366Z,6.57
2023-02-23T07:37:49.734Z,6.58
2023-02-23T07:40:17.586Z,6.57
2023-02-23T07:42:45.806Z,6.57
2023-02-23T07:45:13.153Z,6.58
2023-02-23T07:47:42.702Z,6.58
2023-02-23T07:50:12.694Z,6.60
2023-02-23T07:52:42.193Z,6.61
2023-02-23T07:55:11.766Z,6.63
2023-02-23T07:57:39.635Z,6.63
2023-02-23T08:00:07.537Z,6.64
2023-02-23T08:02:40.467Z,6.65
2023-02-23T08:05:08.259Z,6.65
2023-02-23T08:07:35.501Z,6.66
2023-02-23T08:10:02.744Z,6.68
2023-02-23T08:12:31.587Z,6.69
2023-02-23T08:14:58.881Z,6.67
2023-02-23T08:17:26.500Z,6.68
2023-02-23T08:19:53.875Z,6.70
2023-02-23T08:22:23.006Z,6.71
2023-02-23T08:24:50.744Z,6.70
2023-02-23T08:27:18.774Z,6.71
2023-02-23T08:29:46.989Z,6.71
2023-02-23T08:32:15.821Z,6.72
2023-02-23T08:34:44.230Z,6.72
2023-02-23T08:37:11.910Z,6.74
2023-02-23T08:39:43.345Z,6.73
2023-02-23T08:42:11.146Z,6.75
2023-02-23T08:44:40.444Z,6.75
2023-02-23T08:47:07.730Z,6.76
2023-02-23T08:49:35.081Z,6.76
2023-02-23T08:52:02.371Z,6.74
2023-02-23T08:54:30.594Z,6.74
2023-02-23T08:56:58.356Z,6.73
2023-02-23T08:59:27.139Z,6.72
2023-02-23T09:01:54.624Z,6.71
2023-02-23T09:04:22.190Z,6.69
2023-02-23T09:06:53.225Z,6.69
2023-02-23T09:09:20.602Z,6.71
2023-02-23T09:11:47.930Z,6.71
2023-02-23T09:14:15.224Z,6.74
2023-02-23T09:16:43.538Z,6.77
2023-02-23T09:19:11.159Z,6.81
2023-02-23T09:21:40.552Z,6.83
2023-02-23T09:24:07.758Z,6.86
2023-02-23T09:26:36.017Z,6.88
2023-02-23T09:29:03.435Z,6.88
2023-02-23T09:31:30.756Z,6.92
2023-02-23T09:34:00.418Z,6.95
2023-02-23T09:36:29.013Z,6.98
2023-02-23T09:38:58.161Z,6.99
2023-02-23T09:41:25.311Z,7.01
2023-02-23T09:44:04.539Z,7.02
2023-02-23T09:46:56.034Z,7.02
2023-02-23T09:49:28.639Z,7.03
2023-02-23T09:51:59.001Z,7.03
2023-02-23T09:54:32.831Z,7.02
2023-02-23T09:57:10.769Z,7.04
2023-02-23T09:59:39.914Z,7.07
2023-02-23T10:02:20.997Z,7.10
2023-02-23T10:05:00.940Z,7.15
2023-02-23T10:07:58.268Z,7.19
2023-02-23T10:10:51.161Z,7.26
2023-02-23T10:13:21.653Z,7.32
2023-02-23T10:15:49.296Z,7.39
2023-02-23T10:18:17.817Z,7.47
2023-02-23T10:21:06.625Z,7.51
2023-02-23T10:23:37.285Z,7.54
2023-02-23T10:26:08.699Z,7.54
2023-02-23T10:28:37.366Z,7.58
2023-02-23T10:31:25.230Z,7.59
2023-02-23T10:33:55.622Z,7.62
2023-02-23T10:36:35.895Z,7.64
2023-02-23T10:39:07.078Z,7.67
2023-02-23T10:41:37.242Z,7.71
2023-02-23T10:44:17.034Z,7.73
2023-02-23T10:46:49.599Z,7.76
2023-02-23T10:49:22.544Z,7.75
2023-02-23T10:51:55.807Z,7.74
2023-02-23T10:54:43.167Z,7.76
2023-02-23T10:57:18.786Z,7.76
2023-02-23T11:00:01.618Z,7.79
2023-02-23T11:02:35.634Z,7.83
2023-02-23T11:05:04.588Z,7.85
2023-02-23T11:07:34.132Z,7.86
2023-02-23T11:10:27.438Z,7.87
2023-02-23T11:12:54.899Z,7.86
2023-02-23T11:15:35.332Z,7.84
2023-02-23T11:18:07.318Z,7.83
2023-02-23T11:20:42.105Z,7.80
2023-02-23T11:23:14.676Z,7.81
2023-02-23T11:25:45.118Z,7.83
2023-02-23T11:28:26.276Z,7.84
2023-02-23T11:30:53.759Z,7.87
2023-02-23T11:33:29.812Z,7.87
2023-02-23T11:35:59.914Z,7.87
2023-02-23T11:38:29.676Z,7.88
2023-02-23T11:41:02.587Z,7.89
2023-02-23T11:43:30.443Z,7.88
2023-02-23T11:46:00.981Z,7.90
2023-02-23T11:48:43.022Z,7.88
2023-02-23T11:51:10.327Z,7.89
2023-02-23T11:53:44.903Z,7.88
2023-02-23T11:56:19.974Z,7.88
2023-02-23T11:58:51.194Z,7.85
2023-02-23T12:01:23.691Z,7.81
2023-02-23T12:03:57.117Z,7.77
2023-02-23T12:06:33.261Z,7.73
2023-02-23T12:09:25.195Z,7.71
2023-02-23T12:12:04.702Z,7.70
2023-02-23T12:14:49.808Z,7.68
2023-02-23T12:17:27.498Z,7.69
2023-02-23T12:20:16.596Z,7.63
2023-02-23T12:22:51.401Z,7.63
2023-02-23T12:25:34.194Z,7.61
2023-02-23T12:28:19.681Z,7.60
2023-02-23T12:30:55.343Z,7.59
2023-02-23T12:33:56.159Z,7.57
2023-02-23T12:36:47.855Z,7.57
2023-02-23T12:39:33.352Z,7.58
2023-02-23T12:42:12.873Z,7.57
2023-02-23T12:44:44.516Z,7.57
2023-02-23T12:47:40.628Z,7.58
2023-02-23T12:50:26.654Z,7.57
2023-02-23T12:52:58.623Z,7.56
2023-02-23T12:55:57.956Z,7.49
2023-02-23T12:58:35.944Z,7.35
2023-02-23T13:01:12.828Z,7.20
2023-02-23T13:04:09.755Z,7.10
2023-02-23T13:06:55.684Z,7.02
2023-02-23T13:09:40.265Z,6.98
2023-02-23T13:12:10.677Z,6.90
2023-02-23T13:14:51.004Z,6.84
2023-02-23T13:17:47.596Z,6.68
2023-02-23T13:20:25.569Z,6.60
2023-02-23T13:23:22.129Z,6.52
2023-02-23T13:26:10.871Z,6.43
2023-02-23T13:29:14.900Z,6.36
2023-02-23T13:31:44.194Z,6.31
2023-02-23T13:34:17.289Z,6.25
2023-02-23T13:36:45.997Z,6.24
2023-02-23T13:39:35.137Z,6.23
2023-02-23T13:42:10.072Z,6.19
2023-02-23T13:44:48.219Z,6.16
2023-02-23T13:47:33.804Z,6.14
2023-02-23T13:50:16.503Z,6.16
2023-02-23T13:52:46.497Z,6.12
2023-02-23T13:55:25.763Z,6.11
2023-02-23T13:58:05.719Z,6.05
2023-02-23T14:00:34.948Z,6.00
2023-02-23T14:03:06.187Z,6.00
2023-02-23T14:05:43.624Z,5.96
2023-02-23T14:08:33.487Z,5.97
2023-02-23T14:11:01.516Z,5.99
2023-02-23T14:13:35.490Z,5.99
2023-02-23T14:16:10.610Z,6.00
2023-02-23T14:18:58.519Z,5.97
2023-02-23T14:21:43.509Z,5.97
2023-02-23T14:24:19.445Z,5.95
2023-02-23T14:27:38.555Z,5.94
2023-02-23T14:30:11.045Z,5.91
2023-02-23T14:32:42.421Z,5.88
2023-02-23T14:35:33.776Z,5.87
2023-02-23T14:38:24.924Z,5.88
2023-02-23T14:40:56.342Z,5.88
2023-02-23T14:43:36.632Z,5.89
2023-02-23T14:46:08.580Z,5.92
2023-02-23T14:48:58.558Z,5.95
2023-02-23T14:51:39.741Z,5.97
2023-02-23T14:54:29.337Z,5.95
2023-02-23T14:56:58.997Z,5.97
2023-02-23T14:59:48.172Z,6.01
2023-02-23T15:02:24.914Z,6.03
2023-02-23T15:04:52.842Z,6.04
2023-02-23T15:07:35.907Z,6.05
2023-02-23T15:10:18.765Z,6.02
2023-02-23T15:12:47.667Z,6.02
2023-02-23T15:15:18.830Z,6.03
2023-02-23T15:17:52.246Z,6.05
2023-02-23T15:20:28.800Z,6.03
2023-02-23T15:22:59.263Z,6.04
2023-02-23T15:25:38.692Z,6.03
2023-02-23T15:28:26.420Z,6.02
2023-02-23T15:30:59.988Z,6.02
2023-02-23T15:33:30.443Z,6.04
2023-02-23T15:36:14.665Z,6.03
2023-02-23T15:38:50.663Z,6.04
2023-02-23T15:41:28.813Z,6.04
2023-02-23T15:44:06.690Z,6.01
2023-02-23T15:46:35.007Z,6.00
2023-02-23T15:49:03.613Z,5.96
2023-02-23T15:51:31.233Z,5.91
2023-02-23T15:54:01.420Z,5.87
2023-02-23T15:56:34.878Z,5.84
2023-02-23T15:59:11.172Z,5.81
2023-02-23T16:01:44.153Z,5.79
2023-02-23T16:04:19.015Z,5.78
2023-02-23T16:07:07.768Z,5.79
2023-02-23T16:09:38.653Z,5.76
2023-02-23T16:12:12.633Z,5.73
2023-02-23T16:15:00.775Z,5.70
2023-02-23T16:17:30.971Z,5.67
2023-02-23T16:20:14.081Z,5.64
2023-02-23T16:22:49.571Z,5.62
2023-02-23T16:25:18.879Z,5.60
2023-02-23T16:27:55.156Z,5.60
2023-02-23T16:30:44.309Z,5.62
2023-02-23T16:33:19.889Z,5.58
2023-02-23T16:35:50.156Z,5.58
2023-02-23T16:38:36.360Z,5.54
2023-02-23T16:41:04.809Z,5.53
2023-02-23T16:43:35.985Z,5.52
2023-02-23T16:46:03.518Z,5.49
2023-02-23T16:48:30.804Z,5.49
2023-02-23T16:50:58.052Z,5.49
2023-02-23T16:53:25.629Z,5.45
2023-02-23T16:55:55.498Z,5.43
2023-02-23T16:58:26.016Z,5.43
2023-02-23T17:00:54.259Z,5.44
2023-02-23T17:03:25.093Z,5.42
2023-02-23T17:05:52.636Z,5.39
2023-02-23T17:08:20.326Z,5.39
2023-02-23T17:10:51.295Z,5.38
2023-02-23T17:13:21.886Z,5.36
2023-02-23T17:15:56.326Z,5.32
2023-02-23T17:18:28.860Z,5.28
2023-02-23T17:20:58.789Z,5.24
2023-02-23T17:23:40.760Z,5.23
2023-02-23T17:26:12.352Z,5.23
2023-02-23T17:28:41.024Z,5.21
2023-02-23T17:31:10.122Z,5.21
2023-02-23T17:33:41.293Z,5.19
2023-02-23T17:36:12.191Z,5.17
2023-02-23T17:42:40.227Z,5.04
2023-02-23T17:45:08.873Z,4.98
2023-02-23T17:47:39.859Z,4.93
2023-02-23T17:50:08.010Z,4.88
2023-02-23T17:52:36.179Z,4.84
2023-02-23T17:55:03.967Z,4.80
2023-02-23T17:57:31.343Z,4.75
2023-02-23T17:59:59.061Z,4.69
2023-02-23T18:02:26.928Z,4.65
2023-02-23T18:05:00.326Z,4.59
2023-02-23T18:07:31.107Z,4.54
2023-02-23T18:10:01.844Z,4.47
2023-02-23T18:12:29.843Z,4.42
2023-02-23T18:14:58.152Z,4.37
2023-02-23T18:17:25.621Z,4.33
2023-02-23T18:19:53.052Z,4.27
2023-02-23T18:22:20.344Z,4.23
2023-02-23T18:24:47.594Z,4.20
2023-02-23T18:27:15.337Z,4.17
2023-02-23T18:29:42.596Z,4.15
2023-02-23T18:32:11.475Z,4.12
2023-02-23T18:34:38.965Z,4.09
2023-02-23T18:37:09.890Z,4.10
2023-02-23T18:39:37.431Z,4.10
2023-02-23T18:42:05.117Z,4.14
2023-02-23T18:44:35.245Z,4.16
2023-02-23T18:47:02.722Z,4.20
2023-02-23T18:49:30.130Z,4.22
2023-02-23T18:51:58.217Z,4.25
2023-02-23T18:54:26.148Z,4.28
2023-02-23T18:56:55.978Z,4.30
2023-02-23T18:59:23.279Z,4.32
2023-02-23T19:01:52.591Z,4.33
2023-02-23T19:04:20.210Z,4.35
2023-02-23T19:06:48.172Z,4.36
2023-02-23T19:09:21.591Z,4.35
2023-02-23T19:11:51.202Z,4.33
2023-02-23T19:14:23.889Z,4.31
2023-02-23T19:16:56.568Z,4.27
2023-02-23T19:19:24.301Z,4.23
2023-02-23T19:21:51.730Z,4.19
2023-02-23T19:24:20.683Z,4.18
2023-02-23T19:26:48.000Z,4.16
2023-02-23T19:29:16.925Z,4.15
2023-02-23T19:31:44.511Z,4.16
2023-02-23T19:34:12.582Z,4.17
2023-02-23T19:36:40.680Z,4.18
2023-02-23T19:39:11.136Z,4.19
2023-02-23T19:41:40.034Z,4.17
2023-02-23T19:44:07.627Z,4.16
2023-02-23T19:46:37.017Z,4.13
2023-02-23T19:49:04.888Z,4.11
2023-02-23T19:51:33.638Z,4.09
2023-02-23T19:54:01.054Z,4.06
2023-02-23T19:56:29.394Z,4.05
2023-02-23T19:58:57.786Z,4.06
2023-02-23T20:01:27.688Z,4.08
2023-02-23T20:03:56.272Z,4.11
2023-02-23T20:06:27.516Z,4.13
2023-02-23T20:08:55.649Z,4.15
2023-02-23T20:11:24.095Z,4.18
2023-02-23T20:13:53.064Z,4.21
2023-02-23T20:16:21.150Z,4.21
2023-02-23T20:18:48.521Z,4.22
2023-02-23T20:21:28.515Z,4.23
2023-02-23T20:23:56.529Z,4.26
2023-02-23T20:26:27.424Z,4.27
2023-02-23T20:28:56.257Z,4.27
2023-02-23T20:31:27.320Z,4.28
2023-02-23T20:33:56.626Z,4.28
2023-02-23T20:36:25.201Z,4.27
2023-02-23T20:38:52.628Z,4.26
2023-02-23T20:41:20.971Z,4.26
2023-02-23T20:43:48.446Z,4.25
2023-02-23T20:46:17.705Z,4.25
2023-02-23T20:48:45.407Z,4.24
2023-02-23T20:51:18.799Z,4.22
2023-02-23T20:53:48.211Z,4.17
2023-02-23T20:56:18.473Z,4.12
2023-02-23T20:58:46.158Z,4.12
2023-02-23T21:01:22.725Z,4.11
2023-02-23T21:03:51.718Z,4.12
2023-02-23T21:06:20.536Z,4.13
2023-02-23T21:08:49.013Z,4.14
2023-02-23T21:11:20.228Z,4.12
2023-02-23T21:13:47.846Z,4.12
2023-02-23T21:16:18.545Z,4.10
2023-02-23T21:18:45.846Z,4.05
2023-02-23T21:21:15.740Z,4.06
2023-02-23T21:23:44.798Z,4.07
2023-02-23T21:26:16.425Z,4.07
2023-02-23T21:28:45.244Z,4.09
2023-02-23T21:31:14.362Z,4.10
2023-02-23T21:33:43.564Z,4.10
2023-02-23T21:36:12.755Z,4.09
2023-02-23T21:38:42.905Z,4.09
2023-02-23T21:41:12.342Z,4.12
2023-02-23T21:43:43.471Z,4.14
2023-02-23T21:46:16.774Z,4.14
2023-02-23T21:48:44.346Z,4.15
2023-02-23T21:51:14.219Z,4.13
2023-02-23T21:53:43.932Z,4.13
2023-02-23T21:56:16.483Z,4.13
2023-02-23T21:58:54.486Z,4.12
2023-02-23T22:01:24.919Z,4.12
2023-02-23T22:03:54.797Z,4.13
2023-02-23T22:06:25.303Z,4.14
2023-02-23T22:08:53.587Z,4.14
2023-02-23T22:11:26.966Z,4.12
2023-02-23T22:14:00.241Z,4.12
2023-02-23T22:16:32.857Z,4.13
2023-02-23T22:19:04.424Z,4.14
2023-02-23T22:21:35.123Z,4.16
2023-02-23T22:24:05.402Z,4.16
2023-02-23T22:26:38.449Z,4.17
2023-02-23T22:29:06.981Z,4.18
2023-02-23T22:31:37.443Z,4.18
2023-02-23T22:34:06.330Z,4.10
2023-02-23T22:36:34.847Z,4.06
2023-02-23T22:39:03.977Z,4.03
2023-02-23T22:41:31.356Z,4.01
2023-02-23T22:43:59.093Z,3.98
2023-02-23T22:46:26.939Z,3.95
2023-02-23T22:48:54.474Z,3.91
2023-02-23T22:51:22.509Z,3.88
2023-02-23T22:53:50.055Z,3.89
2023-02-23T22:56:17.594Z,3.88
2023-02-23T22:58:47.999Z,3.88
2023-02-23T23:01:17.405Z,3.88
2023-02-23T23:03:46.626Z,3.87
2023-02-23T23:06:17.214Z,3.87
2023-02-23T23:08:45.919Z,3.82
2023-02-23T23:11:15.925Z,3.80
2023-02-23T23:13:46.558Z,3.79
2023-02-23T23:16:30.554Z,3.77
2023-02-23T23:19:02.869Z,3.74
2023-02-23T23:21:32.957Z,3.70
2023-02-23T23:24:02.135Z,3.67
2023-02-23T23:26:29.866Z,3.64
2023-02-23T23:28:59.650Z,3.62
2023-02-23T23:31:29.715Z,3.59
2023-02-23T23:34:02.624Z,3.58
2023-02-23T23:36:53.263Z,3.55
2023-02-23T23:39:22.032Z,3.54
2023-02-23T23:41:49.978Z,3.57
2023-02-23T23:44:19.841Z,3.58
2023-02-23T23:46:48.379Z,3.59
2023-02-23T23:49:18.414Z,3.58
2023-02-23T23:51:51.034Z,3.55
2023-02-23T23:54:29.721Z,3.50
2023-02-23T23:56:58.194Z,3.48
2023-02-23T23:59:26.888Z,3.46
